sensor_id;sensor_type;location;lat;lon;timestamp;P1;durP1;ratioP1;P2;durP2;ratioP2
52554;SDS011;38455;52.710;6.502;2023-03-24T00:01:00;9.30;;;4.20;;
52554;SDS011;38455;52.710;6.502;2023-03-24T00:03:27;14.52;;;4.38;;
52554;SDS011;38455;52.710;6.502;2023-03-24T00:06:00;10.20;;;4.20;;
52554;SDS011;38455;52.710;6.502;2023-03-24T00:08:27;5.50;;;3.50;;
52554;SDS011;38455;52.710;6.502;2023-03-24T00:11:03;13.73;;;4.28;;
52554;SDS011;38455;52.710;6.502;2023-03-24T00:13:31;9.20;;;3.85;;
52554;SDS011;38455;52.710;6.502;2023-03-24T00:16:03;10.32;;;3.92;;
52554;SDS011;38455;52.710;6.502;2023-03-24T00:18:30;10.75;;;4.40;;
52554;SDS011;38455;52.710;6.502;2023-03-24T00:20:56;13.13;;;4.28;;
52554;SDS011;38455;52.710;6.502;2023-03-24T00:23:22;9.50;;;3.40;;
52554;SDS011;38455;52.710;6.502;2023-03-24T00:26:03;12.00;;;4.05;;
52554;SDS011;38455;52.710;6.502;2023-03-24T00:28:33;13.20;;;3.95;;
52554;SDS011;38455;52.710;6.502;2023-03-24T00:31:01;10.50;;;4.07;;
52554;SDS011;38455;52.710;6.502;2023-03-24T00:33:28;11.23;;;4.00;;
52554;SDS011;38455;52.710;6.502;2023-03-24T00:35:59;9.95;;;3.75;;
52554;SDS011;38455;52.710;6.502;2023-03-24T00:38:29;12.50;;;5.13;;
52554;SDS011;38455;52.710;6.502;2023-03-24T00:40:55;9.85;;;4.03;;
52554;SDS011;38455;52.710;6.502;2023-03-24T00:43:23;9.20;;;3.90;;
52554;SDS011;38455;52.710;6.502;2023-03-24T00:45:48;11.77;;;4.68;;
52554;SDS011;38455;52.710;6.502;2023-03-24T00:48:16;9.40;;;4.20;;
52554;SDS011;38455;52.710;6.502;2023-03-24T00:50:44;8.70;;;4.18;;
52554;SDS011;38455;52.710;6.502;2023-03-24T00:53:12;10.20;;;3.95;;
52554;SDS011;38455;52.710;6.502;2023-03-24T00:55:40;8.95;;;3.40;;
52554;SDS011;38455;52.710;6.502;2023-03-24T00:58:10;7.70;;;4.10;;
52554;SDS011;38455;52.710;6.502;2023-03-24T01:00:42;8.95;;;3.60;;
52554;SDS011;38455;52.710;6.502;2023-03-24T01:03:09;9.32;;;3.78;;
52554;SDS011;38455;52.710;6.502;2023-03-24T01:05:34;9.25;;;3.83;;
52554;SDS011;38455;52.710;6.502;2023-03-24T01:08:02;8.20;;;3.78;;
52554;SDS011;38455;52.710;6.502;2023-03-24T01:10:29;14.35;;;5.60;;
52554;SDS011;38455;52.710;6.502;2023-03-24T01:12:57;10.65;;;4.35;;
52554;SDS011;38455;52.710;6.502;2023-03-24T01:15:28;10.40;;;4.18;;
52554;SDS011;38455;52.710;6.502;2023-03-24T01:17:57;10.15;;;3.72;;
52554;SDS011;38455;52.710;6.502;2023-03-24T01:20:26;9.68;;;3.85;;
52554;SDS011;38455;52.710;6.502;2023-03-24T01:22:56;11.32;;;3.90;;
52554;SDS011;38455;52.710;6.502;2023-03-24T01:25:23;11.27;;;4.30;;
52554;SDS011;38455;52.710;6.502;2023-03-24T01:27:50;8.55;;;4.22;;
52554;SDS011;38455;52.710;6.502;2023-03-24T01:30:18;6.45;;;3.72;;
52554;SDS011;38455;52.710;6.502;2023-03-24T01:32:46;11.13;;;4.78;;
52554;SDS011;38455;52.710;6.502;2023-03-24T01:35:12;7.03;;;4.18;;
52554;SDS011;38455;52.710;6.502;2023-03-24T01:37:38;8.57;;;4.38;;
52554;SDS011;38455;52.710;6.502;2023-03-24T01:40:05;9.38;;;4.50;;
52554;SDS011;38455;52.710;6.502;2023-03-24T01:42:34;8.63;;;4.50;;
52554;SDS011;38455;52.710;6.502;2023-03-24T01:45:32;9.27;;;4.20;;
52554;SDS011;38455;52.710;6.502;2023-03-24T01:48:25;8.95;;;4.30;;
52554;SDS011;38455;52.710;6.502;2023-03-24T01:53:27;10.05;;;4.55;;
52554;SDS011;38455;52.710;6.502;2023-03-24T01:55:56;8.05;;;4.55;;
52554;SDS011;38455;52.710;6.502;2023-03-24T01:58:24;5.35;;;3.78;;
52554;SDS011;38455;52.710;6.502;2023-03-24T02:00:53;6.45;;;4.20;;
52554;SDS011;38455;52.710;6.502;2023-03-24T02:03:20;7.25;;;4.40;;
52554;SDS011;38455;52.710;6.502;2023-03-24T02:05:49;6.10;;;3.60;;
52554;SDS011;38455;52.710;6.502;2023-03-24T02:11:08;6.47;;;4.35;;
52554;SDS011;38455;52.710;6.502;2023-03-24T02:13:34;6.60;;;4.13;;
52554;SDS011;38455;52.710;6.502;2023-03-24T02:16:48;9.65;;;5.15;;
52554;SDS011;38455;52.710;6.502;2023-03-24T02:21:52;9.73;;;4.05;;
52554;SDS011;38455;52.710;6.502;2023-03-24T02:24:35;9.98;;;5.20;;
52554;SDS011;38455;52.710;6.502;2023-03-24T02:27:29;8.70;;;4.53;;
52554;SDS011;38455;52.710;6.502;2023-03-24T02:40:59;8.65;;;4.47;;
52554;SDS011;38455;52.710;6.502;2023-03-24T02:52:05;9.25;;;4.45;;
52554;SDS011;38455;52.710;6.502;2023-03-24T02:57:23;8.40;;;4.80;;
52554;SDS011;38455;52.710;6.502;2023-03-24T03:00:05;7.22;;;4.38;;
52554;SDS011;38455;52.710;6.502;2023-03-24T03:02:40;8.88;;;4.85;;
52554;SDS011;38455;52.710;6.502;2023-03-24T03:05:13;7.93;;;4.80;;
52554;SDS011;38455;52.710;6.502;2023-03-24T03:07:43;7.90;;;4.68;;
52554;SDS011;38455;52.710;6.502;2023-03-24T03:10:18;9.15;;;4.63;;
52554;SDS011;38455;52.710;6.502;2023-03-24T03:12:48;8.88;;;4.75;;
52554;SDS011;38455;52.710;6.502;2023-03-24T03:15:20;7.95;;;4.68;;
52554;SDS011;38455;52.710;6.502;2023-03-24T03:18:00;7.10;;;4.95;;
52554;SDS011;38455;52.710;6.502;2023-03-24T03:20:44;7.90;;;4.60;;
52554;SDS011;38455;52.710;6.502;2023-03-24T03:23:39;10.57;;;4.60;;
52554;SDS011;38455;52.710;6.502;2023-03-24T03:26:06;10.43;;;5.43;;
52554;SDS011;38455;52.710;6.502;2023-03-24T03:28:37;9.00;;;5.15;;
52554;SDS011;38455;52.710;6.502;2023-03-24T03:31:09;12.23;;;5.50;;
52554;SDS011;38455;52.710;6.502;2023-03-24T03:33:45;15.00;;;5.70;;
52554;SDS011;38455;52.710;6.502;2023-03-24T03:36:21;8.65;;;4.50;;
52554;SDS011;38455;52.710;6.502;2023-03-24T03:39:02;7.90;;;4.70;;
52554;SDS011;38455;52.710;6.502;2023-03-24T03:41:31;7.60;;;4.18;;
52554;SDS011;38455;52.710;6.502;2023-03-24T03:43:56;5.40;;;3.60;;
52554;SDS011;38455;52.710;6.502;2023-03-24T03:46:22;8.20;;;3.70;;
52554;SDS011;38455;52.710;6.502;2023-03-24T03:48:48;4.65;;;3.20;;
52554;SDS011;38455;52.710;6.502;2023-03-24T03:51:14;6.25;;;3.15;;
52554;SDS011;38455;52.710;6.502;2023-03-24T03:53:53;4.50;;;2.13;;
52554;SDS011;38455;52.710;6.502;2023-03-24T03:56:28;5.57;;;2.78;;
52554;SDS011;38455;52.710;6.502;2023-03-24T03:58:56;9.02;;;1.80;;
52554;SDS011;38455;52.710;6.502;2023-03-24T04:01:23;4.65;;;1.70;;
52554;SDS011;38455;52.710;6.502;2023-03-24T04:03:55;9.23;;;2.30;;
52554;SDS011;38455;52.710;6.502;2023-03-24T04:07:07;7.70;;;1.90;;
52554;SDS011;38455;52.710;6.502;2023-03-24T04:09:48;6.05;;;1.92;;
52554;SDS011;38455;52.710;6.502;2023-03-24T04:12:43;6.80;;;1.95;;
52554;SDS011;38455;52.710;6.502;2023-03-24T04:18:13;5.78;;;1.77;;
52554;SDS011;38455;52.710;6.502;2023-03-24T04:26:24;4.55;;;1.50;;
52554;SDS011;38455;52.710;6.502;2023-03-24T04:34:43;6.95;;;2.10;;
52554;SDS011;38455;52.710;6.502;2023-03-24T04:37:18;7.38;;;2.10;;
52554;SDS011;38455;52.710;6.502;2023-03-24T04:39:47;11.98;;;2.35;;
52554;SDS011;38455;52.710;6.502;2023-03-24T04:42:24;6.22;;;1.73;;
52554;SDS011;38455;52.710;6.502;2023-03-24T04:44:57;8.27;;;3.00;;
52554;SDS011;38455;52.710;6.502;2023-03-24T04:47:25;13.38;;;3.13;;
52554;SDS011;38455;52.710;6.502;2023-03-24T04:50:02;8.10;;;2.10;;
52554;SDS011;38455;52.710;6.502;2023-03-24T04:52:30;8.47;;;2.07;;
52554;SDS011;38455;52.710;6.502;2023-03-24T04:54:56;8.88;;;2.28;;
52554;SDS011;38455;52.710;6.502;2023-03-24T04:57:22;8.15;;;2.47;;
52554;SDS011;38455;52.710;6.502;2023-03-24T04:59:48;11.02;;;2.88;;
52554;SDS011;38455;52.710;6.502;2023-03-24T05:02:13;16.15;;;3.33;;
52554;SDS011;38455;52.710;6.502;2023-03-24T05:04:39;8.55;;;3.00;;
52554;SDS011;38455;52.710;6.502;2023-03-24T05:07:05;10.20;;;2.50;;
52554;SDS011;38455;52.710;6.502;2023-03-24T05:09:30;7.45;;;2.40;;
52554;SDS011;38455;52.710;6.502;2023-03-24T05:11:56;14.07;;;2.13;;
52554;SDS011;38455;52.710;6.502;2023-03-24T05:14:22;10.65;;;2.50;;
52554;SDS011;38455;52.710;6.502;2023-03-24T05:16:48;15.60;;;3.78;;
52554;SDS011;38455;52.710;6.502;2023-03-24T05:19:14;13.60;;;2.53;;
52554;SDS011;38455;52.710;6.502;2023-03-24T05:21:40;12.07;;;2.92;;
52554;SDS011;38455;52.710;6.502;2023-03-24T05:24:06;12.95;;;2.50;;
52554;SDS011;38455;52.710;6.502;2023-03-24T05:26:32;15.02;;;2.05;;
52554;SDS011;38455;52.710;6.502;2023-03-24T05:28:58;8.45;;;2.25;;
52554;SDS011;38455;52.710;6.502;2023-03-24T05:31:24;16.20;;;2.63;;
52554;SDS011;38455;52.710;6.502;2023-03-24T05:33:50;8.85;;;2.03;;
52554;SDS011;38455;52.710;6.502;2023-03-24T05:36:16;14.77;;;2.70;;
52554;SDS011;38455;52.710;6.502;2023-03-24T05:38:41;8.88;;;2.25;;
52554;SDS011;38455;52.710;6.502;2023-03-24T05:41:07;14.20;;;2.55;;
52554;SDS011;38455;52.710;6.502;2023-03-24T05:43:33;6.63;;;2.08;;
52554;SDS011;38455;52.710;6.502;2023-03-24T05:45:58;10.48;;;3.03;;
52554;SDS011;38455;52.710;6.502;2023-03-24T05:48:24;10.75;;;2.00;;
52554;SDS011;38455;52.710;6.502;2023-03-24T05:50:51;7.60;;;1.80;;
52554;SDS011;38455;52.710;6.502;2023-03-24T05:53:17;7.38;;;2.30;;
52554;SDS011;38455;52.710;6.502;2023-03-24T05:55:46;8.50;;;2.08;;
52554;SDS011;38455;52.710;6.502;2023-03-24T05:58:12;9.80;;;2.63;;
52554;SDS011;38455;52.710;6.502;2023-03-24T06:00:39;8.13;;;2.30;;
52554;SDS011;38455;52.710;6.502;2023-03-24T06:03:05;11.18;;;2.42;;
52554;SDS011;38455;52.710;6.502;2023-03-24T06:05:31;9.30;;;2.80;;
52554;SDS011;38455;52.710;6.502;2023-03-24T06:07:57;11.82;;;3.17;;
52554;SDS011;38455;52.710;6.502;2023-03-24T06:10:26;13.82;;;2.35;;
52554;SDS011;38455;52.710;6.502;2023-03-24T06:12:53;12.18;;;2.75;;
52554;SDS011;38455;52.710;6.502;2023-03-24T06:15:20;10.27;;;3.50;;
52554;SDS011;38455;52.710;6.502;2023-03-24T06:17:48;10.32;;;2.35;;
52554;SDS011;38455;52.710;6.502;2023-03-24T06:20:14;11.07;;;2.75;;
52554;SDS011;38455;52.710;6.502;2023-03-24T06:22:42;12.57;;;2.10;;
52554;SDS011;38455;52.710;6.502;2023-03-24T06:25:10;15.90;;;3.60;;
52554;SDS011;38455;52.710;6.502;2023-03-24T06:27:36;11.60;;;2.38;;
52554;SDS011;38455;52.710;6.502;2023-03-24T06:30:03;16.38;;;3.22;;
52554;SDS011;38455;52.710;6.502;2023-03-24T06:32:30;11.38;;;2.33;;
52554;SDS011;38455;52.710;6.502;2023-03-24T06:34:55;9.95;;;2.28;;
52554;SDS011;38455;52.710;6.502;2023-03-24T06:37:21;10.75;;;2.78;;
52554;SDS011;38455;52.710;6.502;2023-03-24T06:39:47;16.88;;;3.15;;
52554;SDS011;38455;52.710;6.502;2023-03-24T06:42:13;15.80;;;2.60;;
52554;SDS011;38455;52.710;6.502;2023-03-24T06:44:40;15.32;;;3.08;;
52554;SDS011;38455;52.710;6.502;2023-03-24T06:47:05;17.52;;;3.40;;
52554;SDS011;38455;52.710;6.502;2023-03-24T06:49:31;10.98;;;2.95;;
52554;SDS011;38455;52.710;6.502;2023-03-24T06:51:59;11.40;;;2.92;;
52554;SDS011;38455;52.710;6.502;2023-03-24T06:54:25;15.18;;;3.08;;
52554;SDS011;38455;52.710;6.502;2023-03-24T06:56:52;11.00;;;2.53;;
52554;SDS011;38455;52.710;6.502;2023-03-24T06:59:17;12.20;;;2.53;;
52554;SDS011;38455;52.710;6.502;2023-03-24T07:01:47;13.95;;;3.22;;
52554;SDS011;38455;52.710;6.502;2023-03-24T07:04:17;15.95;;;3.22;;
52554;SDS011;38455;52.710;6.502;2023-03-24T07:06:43;12.45;;;2.58;;
52554;SDS011;38455;52.710;6.502;2023-03-24T07:09:09;18.45;;;2.88;;
52554;SDS011;38455;52.710;6.502;2023-03-24T07:11:36;12.00;;;2.63;;
52554;SDS011;38455;52.710;6.502;2023-03-24T07:14:02;15.98;;;3.05;;
52554;SDS011;38455;52.710;6.502;2023-03-24T07:16:28;13.25;;;2.90;;
52554;SDS011;38455;52.710;6.502;2023-03-24T07:18:54;24.45;;;4.20;;
52554;SDS011;38455;52.710;6.502;2023-03-24T07:21:19;15.57;;;4.07;;
52554;SDS011;38455;52.710;6.502;2023-03-24T07:23:45;27.73;;;5.10;;
52554;SDS011;38455;52.710;6.502;2023-03-24T07:26:11;16.08;;;3.58;;
52554;SDS011;38455;52.710;6.502;2023-03-24T07:28:36;19.02;;;3.70;;
52554;SDS011;38455;52.710;6.502;2023-03-24T07:31:05;20.05;;;3.67;;
52554;SDS011;38455;52.710;6.502;2023-03-24T07:33:34;24.75;;;4.57;;
52554;SDS011;38455;52.710;6.502;2023-03-24T07:36:01;14.57;;;3.28;;
52554;SDS011;38455;52.710;6.502;2023-03-24T07:38:27;16.55;;;4.38;;
52554;SDS011;38455;52.710;6.502;2023-03-24T07:40:53;37.03;;;6.53;;
52554;SDS011;38455;52.710;6.502;2023-03-24T07:43:18;22.83;;;4.75;;
52554;SDS011;38455;52.710;6.502;2023-03-24T07:45:45;24.70;;;3.78;;
52554;SDS011;38455;52.710;6.502;2023-03-24T07:48:11;24.08;;;3.75;;
52554;SDS011;38455;52.710;6.502;2023-03-24T07:50:37;17.95;;;3.65;;
52554;SDS011;38455;52.710;6.502;2023-03-24T07:53:03;23.58;;;4.07;;
52554;SDS011;38455;52.710;6.502;2023-03-24T07:55:29;18.98;;;3.30;;
52554;SDS011;38455;52.710;6.502;2023-03-24T07:57:54;20.15;;;4.45;;
52554;SDS011;38455;52.710;6.502;2023-03-24T08:00:20;17.02;;;3.80;;
52554;SDS011;38455;52.710;6.502;2023-03-24T08:02:50;20.85;;;3.78;;
52554;SDS011;38455;52.710;6.502;2023-03-24T08:05:16;19.05;;;4.55;;
52554;SDS011;38455;52.710;6.502;2023-03-24T08:07:44;24.30;;;4.38;;
52554;SDS011;38455;52.710;6.502;2023-03-24T08:10:17;20.15;;;4.50;;
52554;SDS011;38455;52.710;6.502;2023-03-24T08:12:45;22.05;;;3.70;;
52554;SDS011;38455;52.710;6.502;2023-03-24T08:15:11;17.60;;;4.10;;
52554;SDS011;38455;52.710;6.502;2023-03-24T08:17:38;18.15;;;4.63;;
52554;SDS011;38455;52.710;6.502;2023-03-24T08:20:05;16.50;;;3.20;;
52554;SDS011;38455;52.710;6.502;2023-03-24T08:22:42;16.23;;;3.47;;
52554;SDS011;38455;52.710;6.502;2023-03-24T08:25:10;20.48;;;3.95;;
52554;SDS011;38455;52.710;6.502;2023-03-24T08:27:37;16.20;;;3.28;;
52554;SDS011;38455;52.710;6.502;2023-03-24T08:30:04;16.75;;;4.15;;
52554;SDS011;38455;52.710;6.502;2023-03-24T08:32:32;22.60;;;4.00;;
52554;SDS011;38455;52.710;6.502;2023-03-24T08:34:58;20.23;;;3.90;;
52554;SDS011;38455;52.710;6.502;2023-03-24T08:37:24;17.40;;;4.38;;
52554;SDS011;38455;52.710;6.502;2023-03-24T08:39:50;14.50;;;4.68;;
52554;SDS011;38455;52.710;6.502;2023-03-24T08:42:16;15.40;;;3.03;;
52554;SDS011;38455;52.710;6.502;2023-03-24T08:44:41;20.70;;;4.03;;
52554;SDS011;38455;52.710;6.502;2023-03-24T08:47:07;13.82;;;3.17;;
52554;SDS011;38455;52.710;6.502;2023-03-24T08:49:33;17.27;;;3.35;;
52554;SDS011;38455;52.710;6.502;2023-03-24T08:51:58;16.05;;;3.30;;
52554;SDS011;38455;52.710;6.502;2023-03-24T08:54:24;16.48;;;3.38;;
52554;SDS011;38455;52.710;6.502;2023-03-24T08:56:50;15.63;;;3.83;;
52554;SDS011;38455;52.710;6.502;2023-03-24T08:59:16;17.33;;;3.72;;
52554;SDS011;38455;52.710;6.502;2023-03-24T09:01:42;14.00;;;2.90;;
52554;SDS011;38455;52.710;6.502;2023-03-24T09:04:08;16.70;;;3.45;;
52554;SDS011;38455;52.710;6.502;2023-03-24T09:06:33;17.00;;;4.00;;
52554;SDS011;38455;52.710;6.502;2023-03-24T09:08:59;16.20;;;3.58;;
52554;SDS011;38455;52.710;6.502;2023-03-24T09:11:25;17.23;;;3.30;;
52554;SDS011;38455;52.710;6.502;2023-03-24T09:13:51;15.98;;;3.97;;
52554;SDS011;38455;52.710;6.502;2023-03-24T09:16:17;16.10;;;4.47;;
52554;SDS011;38455;52.710;6.502;2023-03-24T09:18:42;17.15;;;3.35;;
52554;SDS011;38455;52.710;6.502;2023-03-24T09:21:09;12.75;;;2.88;;
52554;SDS011;38455;52.710;6.502;2023-03-24T09:23:35;16.55;;;3.00;;
52554;SDS011;38455;52.710;6.502;2023-03-24T09:26:01;14.13;;;3.10;;
52554;SDS011;38455;52.710;6.502;2023-03-24T09:28:27;14.63;;;3.13;;
52554;SDS011;38455;52.710;6.502;2023-03-24T09:30:57;10.75;;;3.33;;
52554;SDS011;38455;52.710;6.502;2023-03-24T09:33:24;12.82;;;2.80;;
52554;SDS011;38455;52.710;6.502;2023-03-24T09:35:56;7.63;;;2.33;;
52554;SDS011;38455;52.710;6.502;2023-03-24T09:38:23;11.48;;;3.30;;
52554;SDS011;38455;52.710;6.502;2023-03-24T09:40:51;8.15;;;2.45;;
52554;SDS011;38455;52.710;6.502;2023-03-24T09:43:54;12.48;;;2.85;;
52554;SDS011;38455;52.710;6.502;2023-03-24T09:46:37;12.85;;;2.72;;
52554;SDS011;38455;52.710;6.502;2023-03-24T09:49:12;13.03;;;2.73;;
52554;SDS011;38455;52.710;6.502;2023-03-24T09:51:42;13.13;;;2.55;;
52554;SDS011;38455;52.710;6.502;2023-03-24T09:54:12;14.57;;;3.28;;
52554;SDS011;38455;52.710;6.502;2023-03-24T09:56:56;17.17;;;4.25;;
52554;SDS011;38455;52.710;6.502;2023-03-24T09:59:36;12.30;;;3.03;;
52554;SDS011;38455;52.710;6.502;2023-03-24T10:02:13;12.65;;;2.95;;
52554;SDS011;38455;52.710;6.502;2023-03-24T10:04:40;10.80;;;3.03;;
52554;SDS011;38455;52.710;6.502;2023-03-24T10:07:08;11.07;;;2.95;;
52554;SDS011;38455;52.710;6.502;2023-03-24T10:09:38;13.93;;;2.70;;
52554;SDS011;38455;52.710;6.502;2023-03-24T10:12:14;11.50;;;2.10;;
52554;SDS011;38455;52.710;6.502;2023-03-24T10:20:38;10.43;;;2.85;;
52554;SDS011;38455;52.710;6.502;2023-03-24T10:31:29;11.80;;;2.40;;
52554;SDS011;38455;52.710;6.502;2023-03-24T10:33:56;12.20;;;2.60;;
52554;SDS011;38455;52.710;6.502;2023-03-24T10:36:23;8.20;;;2.00;;
52554;SDS011;38455;52.710;6.502;2023-03-24T10:38:50;11.65;;;2.28;;
52554;SDS011;38455;52.710;6.502;2023-03-24T10:41:22;12.90;;;3.22;;
52554;SDS011;38455;52.710;6.502;2023-03-24T10:46:22;14.93;;;2.78;;
52554;SDS011;38455;52.710;6.502;2023-03-24T10:48:51;9.15;;;2.38;;
52554;SDS011;38455;52.710;6.502;2023-03-24T10:51:36;12.38;;;2.58;;
52554;SDS011;38455;52.710;6.502;2023-03-24T10:54:09;15.95;;;2.78;;
52554;SDS011;38455;52.710;6.502;2023-03-24T10:56:43;10.45;;;2.53;;
52554;SDS011;38455;52.710;6.502;2023-03-24T11:04:38;9.68;;;2.30;;
52554;SDS011;38455;52.710;6.502;2023-03-24T11:07:15;8.80;;;2.08;;
52554;SDS011;38455;52.710;6.502;2023-03-24T11:10:12;9.38;;;2.15;;
52554;SDS011;38455;52.710;6.502;2023-03-24T11:12:57;10.55;;;2.35;;
52554;SDS011;38455;52.710;6.502;2023-03-24T11:15:31;9.73;;;2.40;;
52554;SDS011;38455;52.710;6.502;2023-03-24T11:20:36;9.63;;;2.10;;
52554;SDS011;38455;52.710;6.502;2023-03-24T11:25:37;9.43;;;2.47;;
52554;SDS011;38455;52.710;6.502;2023-03-24T11:28:06;12.85;;;2.05;;
52554;SDS011;38455;52.710;6.502;2023-03-24T11:30:52;9.88;;;2.13;;
52554;SDS011;38455;52.710;6.502;2023-03-24T11:35:52;7.47;;;2.00;;
52554;SDS011;38455;52.710;6.502;2023-03-24T11:38:19;8.25;;;2.00;;
52554;SDS011;38455;52.710;6.502;2023-03-24T11:40:57;8.27;;;2.28;;
52554;SDS011;38455;52.710;6.502;2023-03-24T11:43:26;7.53;;;1.77;;
52554;SDS011;38455;52.710;6.502;2023-03-24T11:46:15;9.50;;;2.35;;
52554;SDS011;38455;52.710;6.502;2023-03-24T11:48:51;7.25;;;2.15;;
52554;SDS011;38455;52.710;6.502;2023-03-24T11:51:26;9.32;;;2.35;;
52554;SDS011;38455;52.710;6.502;2023-03-24T11:53:56;7.85;;;1.75;;
52554;SDS011;38455;52.710;6.502;2023-03-24T11:58:55;9.75;;;2.78;;
52554;SDS011;38455;52.710;6.502;2023-03-24T12:01:36;6.75;;;2.03;;
52554;SDS011;38455;52.710;6.502;2023-03-24T12:17:39;10.27;;;2.30;;
52554;SDS011;38455;52.710;6.502;2023-03-24T12:20:17;12.40;;;2.50;;
52554;SDS011;38455;52.710;6.502;2023-03-24T12:22:52;5.32;;;1.92;;
52554;SDS011;38455;52.710;6.502;2023-03-24T12:25:41;7.90;;;2.17;;
52554;SDS011;38455;52.710;6.502;2023-03-24T12:35:44;11.63;;;2.35;;
52554;SDS011;38455;52.710;6.502;2023-03-24T12:38:24;9.40;;;2.00;;
52554;SDS011;38455;52.710;6.502;2023-03-24T12:41:02;9.52;;;2.03;;
52554;SDS011;38455;52.710;6.502;2023-03-24T12:55:03;10.57;;;2.57;;
52554;SDS011;38455;52.710;6.502;2023-03-24T12:58:13;12.85;;;2.03;;
52554;SDS011;38455;52.710;6.502;2023-03-24T13:00:26;10.30;;;2.28;;
52554;SDS011;38455;52.710;6.502;2023-03-24T13:02:59;9.50;;;2.20;;
52554;SDS011;38455;52.710;6.502;2023-03-24T13:05:29;6.30;;;1.92;;
52554;SDS011;38455;52.710;6.502;2023-03-24T13:07:58;14.70;;;2.35;;
52554;SDS011;38455;52.710;6.502;2023-03-24T13:10:28;9.27;;;2.70;;
52554;SDS011;38455;52.710;6.502;2023-03-24T13:13:01;13.00;;;3.28;;
52554;SDS011;38455;52.710;6.502;2023-03-24T13:15:42;11.27;;;2.28;;
52554;SDS011;38455;52.710;6.502;2023-03-24T13:21:09;14.27;;;3.10;;
52554;SDS011;38455;52.710;6.502;2023-03-24T13:24:14;11.68;;;2.50;;
52554;SDS011;38455;52.710;6.502;2023-03-24T13:32:08;8.10;;;1.85;;
52554;SDS011;38455;52.710;6.502;2023-03-24T13:34:36;10.68;;;1.90;;
52554;SDS011;38455;52.710;6.502;2023-03-24T13:37:05;10.50;;;2.03;;
52554;SDS011;38455;52.710;6.502;2023-03-24T13:39:47;11.70;;;2.50;;
52554;SDS011;38455;52.710;6.502;2023-03-24T13:42:29;8.27;;;2.00;;
52554;SDS011;38455;52.710;6.502;2023-03-24T13:44:56;12.10;;;2.40;;
52554;SDS011;38455;52.710;6.502;2023-03-24T13:47:25;10.23;;;2.40;;
52554;SDS011;38455;52.710;6.502;2023-03-24T13:52:33;13.43;;;3.22;;
52554;SDS011;38455;52.710;6.502;2023-03-24T13:55:07;9.98;;;2.58;;
52554;SDS011;38455;52.710;6.502;2023-03-24T13:57:40;11.73;;;2.17;;
52554;SDS011;38455;52.710;6.502;2023-03-24T14:00:16;5.20;;;1.80;;
52554;SDS011;38455;52.710;6.502;2023-03-24T14:02:55;8.43;;;1.48;;
52554;SDS011;38455;52.710;6.502;2023-03-24T14:05:31;7.32;;;1.70;;
52554;SDS011;38455;52.710;6.502;2023-03-24T14:23:36;7.55;;;1.20;;
52554;SDS011;38455;52.710;6.502;2023-03-24T14:26:06;7.75;;;1.85;;
52554;SDS011;38455;52.710;6.502;2023-03-24T14:28:40;9.18;;;1.70;;
52554;SDS011;38455;52.710;6.502;2023-03-24T14:31:07;6.35;;;1.60;;
52554;SDS011;38455;52.710;6.502;2023-03-24T14:38:54;7.70;;;1.42;;
52554;SDS011;38455;52.710;6.502;2023-03-24T14:41:29;9.43;;;1.98;;
52554;SDS011;38455;52.710;6.502;2023-03-24T14:43:58;7.05;;;1.77;;
52554;SDS011;38455;52.710;6.502;2023-03-24T14:46:38;6.90;;;1.80;;
52554;SDS011;38455;52.710;6.502;2023-03-24T14:54:38;8.10;;;1.52;;
52554;SDS011;38455;52.710;6.502;2023-03-24T14:57:26;7.32;;;1.83;;
52554;SDS011;38455;52.710;6.502;2023-03-24T15:02:39;12.45;;;2.33;;
52554;SDS011;38455;52.710;6.502;2023-03-24T15:08:12;9.75;;;1.90;;
52554;SDS011;38455;52.710;6.502;2023-03-24T15:18:42;7.50;;;2.33;;
52554;SDS011;38455;52.710;6.502;2023-03-24T15:21:34;6.32;;;1.45;;
52554;SDS011;38455;52.710;6.502;2023-03-24T15:26:47;8.23;;;2.22;;
52554;SDS011;38455;52.710;6.502;2023-03-24T15:29:16;7.78;;;1.67;;
52554;SDS011;38455;52.710;6.502;2023-03-24T15:31:42;7.30;;;2.00;;
52554;SDS011;38455;52.710;6.502;2023-03-24T15:36:54;7.50;;;1.85;;
52554;SDS011;38455;52.710;6.502;2023-03-24T15:39:27;8.10;;;2.25;;
52554;SDS011;38455;52.710;6.502;2023-03-24T15:41:54;9.73;;;1.65;;
52554;SDS011;38455;52.710;6.502;2023-03-24T15:44:20;10.82;;;1.85;;
52554;SDS011;38455;52.710;6.502;2023-03-24T15:47:01;4.75;;;1.92;;
52554;SDS011;38455;52.710;6.502;2023-03-24T15:49:31;10.40;;;2.40;;
52554;SDS011;38455;52.710;6.502;2023-03-24T15:52:03;6.20;;;2.30;;
52554;SDS011;38455;52.710;6.502;2023-03-24T15:54:48;6.65;;;2.30;;
52554;SDS011;38455;52.710;6.502;2023-03-24T15:59:50;7.70;;;1.83;;
52554;SDS011;38455;52.710;6.502;2023-03-24T16:02:40;6.18;;;1.60;;
52554;SDS011;38455;52.710;6.502;2023-03-24T16:05:30;9.15;;;2.78;;
52554;SDS011;38455;52.710;6.502;2023-03-24T16:07:58;10.60;;;2.30;;
52554;SDS011;38455;52.710;6.502;2023-03-24T16:13:24;9.80;;;1.80;;
52554;SDS011;38455;52.710;6.502;2023-03-24T16:18:21;6.35;;;1.63;;
52554;SDS011;38455;52.710;6.502;2023-03-24T16:20:58;8.65;;;2.55;;
52554;SDS011;38455;52.710;6.502;2023-03-24T16:23:25;5.47;;;1.60;;
52554;SDS011;38455;52.710;6.502;2023-03-24T16:25:51;5.70;;;2.10;;
52554;SDS011;38455;52.710;6.502;2023-03-24T16:28:17;9.82;;;2.65;;
52554;SDS011;38455;52.710;6.502;2023-03-24T16:30:45;5.10;;;1.77;;
52554;SDS011;38455;52.710;6.502;2023-03-24T16:33:22;11.80;;;2.20;;
52554;SDS011;38455;52.710;6.502;2023-03-24T16:35:48;9.98;;;1.90;;
52554;SDS011;38455;52.710;6.502;2023-03-24T16:38:14;6.15;;;1.75;;
52554;SDS011;38455;52.710;6.502;2023-03-24T16:40:45;6.35;;;1.67;;
52554;SDS011;38455;52.710;6.502;2023-03-24T16:43:16;9.95;;;2.47;;
52554;SDS011;38455;52.710;6.502;2023-03-24T16:45:44;8.07;;;1.88;;
52554;SDS011;38455;52.710;6.502;2023-03-24T16:48:11;5.93;;;1.50;;
52554;SDS011;38455;52.710;6.502;2023-03-24T16:53:02;8.27;;;1.40;;
52554;SDS011;38455;52.710;6.502;2023-03-24T16:55:29;4.82;;;1.52;;
52554;SDS011;38455;52.710;6.502;2023-03-24T16:57:55;11.40;;;1.50;;
52554;SDS011;38455;52.710;6.502;2023-03-24T17:00:22;5.60;;;1.48;;
52554;SDS011;38455;52.710;6.502;2023-03-24T17:02:48;5.65;;;1.92;;
52554;SDS011;38455;52.710;6.502;2023-03-24T17:05:16;5.68;;;1.80;;
52554;SDS011;38455;52.710;6.502;2023-03-24T17:07:42;9.93;;;2.28;;
52554;SDS011;38455;52.710;6.502;2023-03-24T17:10:08;6.93;;;1.80;;
52554;SDS011;38455;52.710;6.502;2023-03-24T17:12:34;8.63;;;1.63;;
52554;SDS011;38455;52.710;6.502;2023-03-24T17:14:59;5.63;;;1.77;;
52554;SDS011;38455;52.710;6.502;2023-03-24T17:17:25;5.45;;;1.45;;
52554;SDS011;38455;52.710;6.502;2023-03-24T17:19:51;5.68;;;1.85;;
52554;SDS011;38455;52.710;6.502;2023-03-24T17:22:16;10.43;;;1.65;;
52554;SDS011;38455;52.710;6.502;2023-03-24T17:24:43;7.57;;;1.45;;
52554;SDS011;38455;52.710;6.502;2023-03-24T17:27:14;10.05;;;1.83;;
52554;SDS011;38455;52.710;6.502;2023-03-24T17:29:42;9.65;;;2.05;;
52554;SDS011;38455;52.710;6.502;2023-03-24T17:32:09;6.00;;;1.33;;
52554;SDS011;38455;52.710;6.502;2023-03-24T17:34:35;6.00;;;1.48;;
52554;SDS011;38455;52.710;6.502;2023-03-24T17:37:02;10.00;;;1.55;;
52554;SDS011;38455;52.710;6.502;2023-03-24T17:39:28;5.93;;;1.52;;
52554;SDS011;38455;52.710;6.502;2023-03-24T17:41:54;10.15;;;1.95;;
52554;SDS011;38455;52.710;6.502;2023-03-24T17:44:23;6.05;;;1.48;;
52554;SDS011;38455;52.710;6.502;2023-03-24T17:46:49;10.35;;;1.80;;
52554;SDS011;38455;52.710;6.502;2023-03-24T17:49:14;10.13;;;2.88;;
52554;SDS011;38455;52.710;6.502;2023-03-24T17:51:40;10.05;;;2.42;;
52554;SDS011;38455;52.710;6.502;2023-03-24T17:54:06;7.80;;;1.65;;
52554;SDS011;38455;52.710;6.502;2023-03-24T17:56:31;9.52;;;1.95;;